createdAt,value
2018-07-05T00:00:17.990Z,20.90
2018-07-05T00:03:04.635Z,20.90
2018-07-05T00:05:51.289Z,20.80
2018-07-05T00:08:37.901Z,20.80
2018-07-05T00:11:24.561Z,20.80
2018-07-05T00:14:11.443Z,20.80
2018-07-05T00:16:57.763Z,20.70
2018-07-05T00:19:44.416Z,20.70
2018-07-05T00:22:30.880Z,20.60
2018-07-05T00:25:17.438Z,20.60
2018-07-05T00:28:04.280Z,20.50
2018-07-05T00:30:50.740Z,20.50
2018-07-05T00:33:37.226Z,20.40
2018-07-05T00:36:23.918Z,20.40
2018-07-05T00:39:13.922Z,20.40
2018-07-05T00:42:00.459Z,20.30
2018-07-05T00:44:51.564Z,20.20
2018-07-05T00:47:38.277Z,20.20
2018-07-05T00:50:24.912Z,20.20
2018-07-05T00:53:12.057Z,20.20
2018-07-05T00:55:58.533Z,20.20
2018-07-05T01:01:25.576Z,20.20
2018-07-05T01:04:12.176Z,20.10
2018-07-05T01:06:58.688Z,20.00
2018-07-05T01:09:48.738Z,20.10
2018-07-05T01:12:35.364Z,20.00
2018-07-05T01:15:22.768Z,19.90
2018-07-05T01:18:09.200Z,19.90
2018-07-05T01:20:55.758Z,20.00
2018-07-05T01:23:42.316Z,20.00
2018-07-05T01:26:28.756Z,19.90
2018-07-05T01:29:16.750Z,19.90
2018-07-05T01:32:04.458Z,19.90
2018-07-05T01:34:50.950Z,19.70
2018-07-05T01:37:37.766Z,19.70
2018-07-05T01:40:24.248Z,19.60
2018-07-05T01:43:11.098Z,19.60
2018-07-05T01:45:57.539Z,19.50
2018-07-05T01:48:44.093Z,19.50
2018-07-05T01:51:30.593Z,19.50
2018-07-05T01:54:17.218Z,19.60
2018-07-05T01:57:04.287Z,19.60
2018-07-05T01:59:50.744Z,19.50
2018-07-05T02:02:37.207Z,19.60
2018-07-05T02:05:23.957Z,19.60
2018-07-05T02:08:10.594Z,19.60
2018-07-05T02:10:57.069Z,19.60
2018-07-05T02:13:43.616Z,19.50
2018-07-05T02:16:30.072Z,19.50
2018-07-05T02:19:16.694Z,19.40
2018-07-05T02:22:03.228Z,19.30
2018-07-05T02:24:49.774Z,19.30
2018-07-05T02:27:36.518Z,19.30
2018-07-05T02:30:22.981Z,19.30
2018-07-05T02:33:09.397Z,19.30
2018-07-05T02:35:56.000Z,19.20
2018-07-05T02:38:42.625Z,19.10
2018-07-05T02:41:29.281Z,19.10
2018-07-05T02:44:15.876Z,19.20
2018-07-05T02:47:02.313Z,19.20
2018-07-05T02:49:48.780Z,19.20
2018-07-05T02:52:35.210Z,19.10
2018-07-05T02:55:22.708Z,19.10
2018-07-05T02:58:09.560Z,19.20
2018-07-05T03:00:56.042Z,19.10
2018-07-05T03:03:42.697Z,19.00
2018-07-05T03:06:29.230Z,19.00
2018-07-05T03:09:15.896Z,18.90
2018-07-05T03:12:04.340Z,18.90
2018-07-05T03:14:50.848Z,18.90
2018-07-05T03:17:37.366Z,18.70
2018-07-05T03:23:04.416Z,18.70
2018-07-05T03:25:50.963Z,18.70
2018-07-05T03:28:37.359Z,18.80
2018-07-05T03:31:23.988Z,18.80
2018-07-05T03:34:10.535Z,18.80
2018-07-05T03:36:56.989Z,18.90
2018-07-05T03:39:43.721Z,18.80
2018-07-05T03:42:30.524Z,18.90
2018-07-05T03:45:17.741Z,18.90
2018-07-05T03:48:04.365Z,18.90
2018-07-05T03:50:50.865Z,18.90
2018-07-05T03:53:37.589Z,19.00
2018-07-05T03:56:25.324Z,19.10
2018-07-05T03:59:11.834Z,19.10
2018-07-05T04:01:58.469Z,19.00
2018-07-05T04:04:45.136Z,18.80
2018-07-05T04:07:31.904Z,19.10
2018-07-05T04:10:18.417Z,19.10
2018-07-05T04:13:05.034Z,19.10
2018-07-05T04:15:51.828Z,19.10
2018-07-05T04:18:38.323Z,19.30
2018-07-05T04:21:24.883Z,19.30
2018-07-05T04:24:11.444Z,19.40
2018-07-05T04:26:58.191Z,19.50
2018-07-05T04:29:44.807Z,19.40
2018-07-05T04:32:31.314Z,19.50
2018-07-05T04:35:17.889Z,19.60
2018-07-05T04:38:04.460Z,19.50
2018-07-05T04:40:51.083Z,19.60
2018-07-05T04:43:37.671Z,19.70
2018-07-05T04:46:24.227Z,19.90
2018-07-05T04:49:10.936Z,20.00
2018-07-05T04:51:57.381Z,20.10
2018-07-05T04:54:44.136Z,20.20
2018-07-05T04:57:30.848Z,20.40
2018-07-05T05:00:17.396Z,20.70
2018-07-05T05:03:05.208Z,20.80
2018-07-05T05:05:53.414Z,21.10
2018-07-05T05:08:40.140Z,21.20
2018-07-05T05:11:26.904Z,21.40
2018-07-05T05:14:13.273Z,21.50
2018-07-05T05:17:03.523Z,21.50
2018-07-05T05:19:50.186Z,21.60
2018-07-05T05:22:37.053Z,21.80
2018-07-05T05:25:24.319Z,21.90
2018-07-05T05:28:10.980Z,22.00
2018-07-05T05:30:57.626Z,22.20
2018-07-05T05:33:44.123Z,22.20
2018-07-05T05:36:30.809Z,22.20
2018-07-05T05:39:17.376Z,22.30
2018-07-05T05:42:04.178Z,22.40
2018-07-05T05:44:50.856Z,22.50
2018-07-05T05:47:37.631Z,22.60
2018-07-05T05:50:24.122Z,22.60
2018-07-05T05:53:12.145Z,22.70
2018-07-05T05:55:58.851Z,22.90
2018-07-05T05:58:45.589Z,22.90
2018-07-05T06:01:32.294Z,22.90
2018-07-05T06:04:18.889Z,23.00
2018-07-05T06:07:05.352Z,23.30
2018-07-05T06:09:51.933Z,23.40
2018-07-05T06:12:38.406Z,23.50
2018-07-05T06:15:24.991Z,23.60
2018-07-05T06:18:11.720Z,23.60
2018-07-05T06:20:58.239Z,23.70
2018-07-05T06:23:44.824Z,23.80
2018-07-05T06:26:31.410Z,23.90
2018-07-05T06:29:18.675Z,23.90
2018-07-05T06:32:05.560Z,24.20
2018-07-05T06:34:52.119Z,24.30
2018-07-05T06:37:39.068Z,24.50
2018-07-05T06:40:25.697Z,24.60
2018-07-05T06:43:12.354Z,24.80
2018-07-05T06:45:59.219Z,25.00
2018-07-05T06:48:46.023Z,25.20
2018-07-05T06:51:32.863Z,25.40
2018-07-05T06:54:19.430Z,25.50
2018-07-05T06:57:06.784Z,25.70
2018-07-05T06:59:53.854Z,25.80
2018-07-05T07:02:40.702Z,25.90
2018-07-05T07:05:27.995Z,26.00
2018-07-05T07:08:18.365Z,26.10
2018-07-05T07:11:06.206Z,26.10
2018-07-05T07:13:52.866Z,26.10
2018-07-05T07:16:39.678Z,26.20
2018-07-05T07:19:27.610Z,26.20
2018-07-05T07:22:14.734Z,26.20
2018-07-05T07:25:01.564Z,26.30
2018-07-05T07:27:48.347Z,26.30
2018-07-05T07:30:34.975Z,26.40
2018-07-05T07:33:21.812Z,26.30
2018-07-05T07:36:09.200Z,26.20
2018-07-05T07:38:55.953Z,26.20
2018-07-05T07:41:42.700Z,26.20
2018-07-05T07:44:11.063Z,26.20
2018-07-05T07:46:39.304Z,26.30
2018-07-05T07:49:07.819Z,26.40
2018-07-05T07:51:35.899Z,26.40
2018-07-05T07:54:03.944Z,26.40
2018-07-05T07:56:32.169Z,26.60
2018-07-05T07:59:00.464Z,26.70
2018-07-05T08:01:28.703Z,26.80
2018-07-05T08:03:56.717Z,26.80
2018-07-05T08:06:25.175Z,26.90
2018-07-05T08:08:53.371Z,27.00
2018-07-05T08:11:21.724Z,27.00
2018-07-05T08:13:49.886Z,27.10
2018-07-05T08:16:18.069Z,27.30
2018-07-05T08:18:46.234Z,27.40
2018-07-05T08:21:15.181Z,27.50
2018-07-05T08:23:43.408Z,27.60
2018-07-05T08:26:12.641Z,27.60
2018-07-05T08:28:40.880Z,27.60
2018-07-05T08:31:09.228Z,27.70
2018-07-05T08:33:37.231Z,27.80
2018-07-05T08:36:05.549Z,28.10
2018-07-05T08:38:34.005Z,28.40
2018-07-05T08:41:02.822Z,28.80
2018-07-05T08:43:31.028Z,29.40
2018-07-05T08:45:59.444Z,30.00
2018-07-05T08:48:27.505Z,30.60
2018-07-05T08:50:55.886Z,30.90
2018-07-05T08:53:24.270Z,31.00
2018-07-05T08:55:52.315Z,30.90
2018-07-05T08:58:20.488Z,30.80
2018-07-05T09:00:48.435Z,30.80
2018-07-05T09:03:16.475Z,30.80
2018-07-05T09:05:44.591Z,30.90
2018-07-05T09:08:12.869Z,31.10
2018-07-05T09:10:41.161Z,31.20
2018-07-05T09:13:09.539Z,31.30
2018-07-05T09:15:37.757Z,31.50
2018-07-05T09:18:05.824Z,31.80
2018-07-05T09:20:34.972Z,32.30
2018-07-05T09:23:03.028Z,32.60
2018-07-05T09:25:31.147Z,33.20
2018-07-05T09:27:59.116Z,33.60
2018-07-05T09:30:27.299Z,33.80
2018-07-05T09:32:55.276Z,33.80
2018-07-05T09:35:23.540Z,33.50
2018-07-05T09:37:51.597Z,33.10
2018-07-05T09:40:19.796Z,33.00
2018-07-05T09:42:47.919Z,32.80
2018-07-05T09:45:16.123Z,32.90
2018-07-05T09:47:44.174Z,33.20
2018-07-05T09:50:12.361Z,33.70
2018-07-05T09:52:40.540Z,34.40
2018-07-05T09:55:08.650Z,35.00
2018-07-05T09:57:36.786Z,35.30
2018-07-05T10:00:05.070Z,35.40
2018-07-05T10:02:33.255Z,35.30
2018-07-05T10:05:03.246Z,35.30
2018-07-05T10:07:31.396Z,35.60
2018-07-05T10:09:59.467Z,35.90
2018-07-05T10:12:27.564Z,36.10
2018-07-05T10:14:57.679Z,36.30
2018-07-05T10:17:25.666Z,36.70
2018-07-05T10:19:53.863Z,37.20
2018-07-05T10:22:22.035Z,37.80
2018-07-05T10:24:50.415Z,38.40
2018-07-05T10:27:18.649Z,38.20
2018-07-05T10:29:59.032Z,38.10
2018-07-05T10:32:45.762Z,37.60
2018-07-05T10:35:20.097Z,37.20
2018-07-05T10:37:48.203Z,37.20
2018-07-05T10:40:28.641Z,37.20
2018-07-05T10:43:17.198Z,36.90
2018-07-05T10:46:04.263Z,37.00
2018-07-05T10:48:50.854Z,37.00
2018-07-05T10:51:37.634Z,37.00
2018-07-05T10:54:24.273Z,36.60
2018-07-05T10:57:11.326Z,35.90
2018-07-05T10:59:57.994Z,35.70
2018-07-05T11:02:44.698Z,35.40
2018-07-05T11:05:31.630Z,35.20
2018-07-05T11:08:18.234Z,35.00
2018-07-05T11:11:06.157Z,34.80
2018-07-05T11:13:52.910Z,34.60
2018-07-05T11:16:42.625Z,34.20
2018-07-05T11:19:29.263Z,33.90
2018-07-05T11:22:18.620Z,33.60
2018-07-05T11:25:06.468Z,33.30
2018-07-05T11:27:53.244Z,33.00
2018-07-05T11:30:39.749Z,32.60
2018-07-05T11:33:26.483Z,32.40
2018-07-05T11:36:13.288Z,32.20
2018-07-05T11:38:59.954Z,32.20
2018-07-05T11:41:47.271Z,31.90
2018-07-05T11:44:34.117Z,31.70
2018-07-05T11:47:20.952Z,31.60
2018-07-05T11:50:07.545Z,31.40
2018-07-05T11:52:54.147Z,31.20
2018-07-05T11:55:41.015Z,31.10
2018-07-05T11:58:27.911Z,30.90
2018-07-05T12:01:16.789Z,30.90
2018-07-05T12:04:05.413Z,30.80
2018-07-05T12:06:52.300Z,30.80
2018-07-05T12:09:39.019Z,30.70
2018-07-05T12:12:25.788Z,30.70
2018-07-05T12:15:12.562Z,30.70
2018-07-05T12:17:59.324Z,30.50
2018-07-05T12:20:45.929Z,30.50
2018-07-05T12:23:32.653Z,30.40
2018-07-05T12:26:20.582Z,30.40
2018-07-05T12:29:07.533Z,30.30
2018-07-05T12:31:54.369Z,30.40
2018-07-05T12:34:41.423Z,30.40
2018-07-05T12:37:30.406Z,30.40
2018-07-05T12:40:17.049Z,30.30
2018-07-05T12:43:03.688Z,30.30
2018-07-05T12:45:50.209Z,30.30
2018-07-05T12:48:36.929Z,30.20
2018-07-05T12:51:23.654Z,30.00
2018-07-05T12:54:10.655Z,29.80
2018-07-05T12:56:57.444Z,29.70
2018-07-05T12:59:44.382Z,29.50
2018-07-05T13:02:31.002Z,29.40
2018-07-05T13:05:18.823Z,29.30
2018-07-05T13:08:05.740Z,29.30
2018-07-05T13:10:52.432Z,29.20
2018-07-05T13:13:39.268Z,29.10
2018-07-05T13:19:06.749Z,29.10
2018-07-05T13:21:53.590Z,28.90
2018-07-05T13:24:40.330Z,28.80
2018-07-05T13:27:27.082Z,28.60
2018-07-05T13:30:13.991Z,28.50
2018-07-05T13:33:00.723Z,28.30
2018-07-05T13:35:48.876Z,28.30
2018-07-05T13:38:35.606Z,28.20
2018-07-05T13:41:22.293Z,28.10
2018-07-05T13:44:09.328Z,28.10
2018-07-05T13:46:55.849Z,27.90
2018-07-05T13:49:42.367Z,27.80
2018-07-05T13:52:29.267Z,27.50
2018-07-05T13:55:16.113Z,27.40
2018-07-05T13:58:04.286Z,27.20
2018-07-05T14:00:51.033Z,27.20
2018-07-05T14:03:37.828Z,27.20
2018-07-05T14:06:24.961Z,27.20
2018-07-05T14:09:11.729Z,27.10
2018-07-05T14:11:59.207Z,27.10
2018-07-05T14:14:46.099Z,27.10
2018-07-05T14:17:32.835Z,27.10
2018-07-05T14:20:19.604Z,27.00
2018-07-05T14:23:06.378Z,27.00
2018-07-05T14:25:53.142Z,27.00
2018-07-05T14:28:40.906Z,27.00
2018-07-05T14:31:27.686Z,27.00
2018-07-05T14:34:14.550Z,27.00
2018-07-05T14:37:03.093Z,26.90
2018-07-05T14:39:50.108Z,26.90
2018-07-05T14:42:36.946Z,26.90
2018-07-05T14:45:23.893Z,26.80
2018-07-05T14:48:10.517Z,27.00
2018-07-05T14:50:57.346Z,26.90
2018-07-05T14:53:43.907Z,27.00
2018-07-05T14:56:30.754Z,27.00
2018-07-05T14:59:17.770Z,27.00
2018-07-05T15:02:04.966Z,26.90
2018-07-05T15:04:51.562Z,26.90
2018-07-05T15:07:40.326Z,27.00
2018-07-05T15:10:26.952Z,26.90
2018-07-05T15:13:14.635Z,26.90
2018-07-05T15:16:01.491Z,26.80
2018-07-05T15:18:48.442Z,26.70
2018-07-05T15:21:35.165Z,26.70
2018-07-05T15:24:22.295Z,26.60
2018-07-05T15:27:09.574Z,26.50
2018-07-05T15:29:56.496Z,26.40
2018-07-05T15:32:43.283Z,26.30
2018-07-05T15:35:30.710Z,26.20
2018-07-05T15:38:17.271Z,26.20
2018-07-05T15:41:04.016Z,26.20
2018-07-05T15:43:50.617Z,26.10
2018-07-05T15:46:37.470Z,25.90
2018-07-05T15:49:24.220Z,26.10
2018-07-05T15:52:11.664Z,26.00
2018-07-05T15:54:58.189Z,25.90
2018-07-05T15:57:44.762Z,25.90
2018-07-05T16:00:35.622Z,25.70
2018-07-05T16:03:27.421Z,25.80
2018-07-05T16:06:14.309Z,25.80
2018-07-05T16:09:01.350Z,25.70
2018-07-05T16:11:48.374Z,25.70
2018-07-05T16:14:34.907Z,25.60
2018-07-05T16:17:21.521Z,25.50
2018-07-05T16:20:08.394Z,25.50
2018-07-05T16:22:55.088Z,25.40
2018-07-05T16:25:42.768Z,25.40
2018-07-05T16:28:29.434Z,25.30
2018-07-05T16:31:17.244Z,25.20
2018-07-05T16:34:03.855Z,25.10
2018-07-05T16:36:50.396Z,25.10
2018-07-05T16:39:37.091Z,25.10
2018-07-05T16:42:23.835Z,24.90
2018-07-05T16:45:12.016Z,24.90
2018-07-05T16:47:58.547Z,24.90
2018-07-05T16:50:45.387Z,24.80
2018-07-05T16:53:32.083Z,24.90
2018-07-05T16:56:18.681Z,24.80
2018-07-05T16:59:05.789Z,24.80
2018-07-05T17:01:52.502Z,24.70
2018-07-05T17:04:39.277Z,24.70
2018-07-05T17:07:25.837Z,24.70
2018-07-05T17:10:15.170Z,24.80
2018-07-05T17:13:03.245Z,24.70
2018-07-05T17:15:50.373Z,24.70
2018-07-05T17:18:37.071Z,24.70
2018-07-05T17:21:23.687Z,24.70
2018-07-05T17:24:13.313Z,24.70
2018-07-05T17:27:00.541Z,24.50
2018-07-05T17:29:49.294Z,24.70
2018-07-05T17:32:35.932Z,24.70
2018-07-05T17:35:22.720Z,24.60
2018-07-05T17:38:11.347Z,24.60
2018-07-05T17:40:58.192Z,24.50
2018-07-05T17:43:44.992Z,24.60
2018-07-05T17:46:31.530Z,24.50
2018-07-05T17:49:19.335Z,24.50
2018-07-05T17:52:05.944Z,24.40
2018-07-05T17:54:52.627Z,24.40
2018-07-05T17:57:39.270Z,24.40
2018-07-05T18:00:25.913Z,24.30
2018-07-05T18:03:12.506Z,24.30
2018-07-05T18:05:59.402Z,24.30
2018-07-05T18:08:45.964Z,24.30
2018-07-05T18:11:32.744Z,24.30
2018-07-05T18:14:19.562Z,24.20
2018-07-05T18:17:06.296Z,24.20
2018-07-05T18:19:52.890Z,24.10
2018-07-05T18:22:39.434Z,24.00
2018-07-05T18:25:25.946Z,24.00
2018-07-05T18:28:12.751Z,24.00
2018-07-05T18:30:59.334Z,23.90
2018-07-05T18:33:46.176Z,23.80
2018-07-05T18:36:32.864Z,23.80
2018-07-05T18:39:19.977Z,23.70
2018-07-05T18:42:06.582Z,23.60
2018-07-05T18:44:54.213Z,23.70
2018-07-05T18:47:40.935Z,23.70
2018-07-05T18:50:27.817Z,23.70
2018-07-05T18:53:14.757Z,23.60
2018-07-05T18:56:02.190Z,23.50
2018-07-05T18:58:49.035Z,23.50
2018-07-05T19:01:35.852Z,23.40
2018-07-05T19:04:22.524Z,23.50
2018-07-05T19:07:09.216Z,23.50
2018-07-05T19:09:55.990Z,23.50
2018-07-05T19:12:42.640Z,23.50
2018-07-05T19:15:29.456Z,23.40
2018-07-05T19:18:16.030Z,23.40
2018-07-05T19:21:03.573Z,23.30
2018-07-05T19:23:50.459Z,23.30
2018-07-05T19:26:37.810Z,23.30
2018-07-05T19:29:24.418Z,23.30
2018-07-05T19:32:11.273Z,23.20
2018-07-05T19:34:57.830Z,23.30
2018-07-05T19:37:44.856Z,23.20
2018-07-05T19:40:31.742Z,23.10
2018-07-05T19:43:18.190Z,23.10
2018-07-05T19:46:05.190Z,23.20
2018-07-05T19:48:51.811Z,23.10
2018-07-05T19:51:38.347Z,23.00
2018-07-05T19:54:25.239Z,22.90
2018-07-05T19:57:12.121Z,22.80
2018-07-05T19:59:58.508Z,22.70
2018-07-05T20:02:45.435Z,22.60
2018-07-05T20:05:32.433Z,22.60
2018-07-05T20:08:18.936Z,22.50
2018-07-05T20:11:05.917Z,22.30
2018-07-05T20:13:52.712Z,22.20
2018-07-05T20:16:44.461Z,22.10
2018-07-05T20:19:31.032Z,21.90
2018-07-05T20:22:18.718Z,21.80
2018-07-05T20:25:05.488Z,21.70
2018-07-05T20:27:52.156Z,21.60
2018-07-05T20:30:43.086Z,21.50
2018-07-05T20:33:31.596Z,21.40
2018-07-05T20:36:20.299Z,21.40
2018-07-05T20:39:09.467Z,21.20
2018-07-05T20:44:37.404Z,21.20
2018-07-05T20:47:24.368Z,21.10
2018-07-05T20:50:11.198Z,21.10
2018-07-05T20:52:58.028Z,21.00
2018-07-05T20:55:44.772Z,21.00
2018-07-05T20:58:31.692Z,20.90
2018-07-05T21:01:19.120Z,20.80
2018-07-05T21:04:06.486Z,20.90
2018-07-05T21:06:53.492Z,20.80
2018-07-05T21:09:40.116Z,20.80
2018-07-05T21:12:26.742Z,20.80
2018-07-05T21:15:13.817Z,20.70
2018-07-05T21:18:00.673Z,20.70
2018-07-05T21:20:47.420Z,20.60
2018-07-05T21:23:34.082Z,20.60
2018-07-05T21:26:20.678Z,20.60
2018-07-05T21:29:07.271Z,20.60
2018-07-05T21:31:54.128Z,20.60
2018-07-05T21:34:40.949Z,20.60
2018-07-05T21:37:27.945Z,20.60
2018-07-05T21:40:17.906Z,20.40
2018-07-05T21:43:05.058Z,20.60
2018-07-05T21:45:51.793Z,20.50
2018-07-05T21:48:38.735Z,20.50
2018-07-05T21:51:25.315Z,20.50
2018-07-05T21:54:12.041Z,20.50
2018-07-05T21:56:58.917Z,20.50
2018-07-05T21:59:45.635Z,20.50
2018-07-05T22:02:32.372Z,20.50
2018-07-05T22:05:20.888Z,20.50
2018-07-05T22:08:07.401Z,20.40
2018-07-05T22:10:54.078Z,20.50
2018-07-05T22:13:43.909Z,20.50
2018-07-05T22:16:30.793Z,20.40
2018-07-05T22:21:24.734Z,20.40
2018-07-05T22:24:16.564Z,20.40
2018-07-05T22:27:03.208Z,20.40
2018-07-05T22:29:55.262Z,20.40
2018-07-05T22:32:42.054Z,20.40
2018-07-05T22:35:28.586Z,20.30
2018-07-05T22:38:15.062Z,20.30
2018-07-05T22:41:02.694Z,20.30
2018-07-05T22:43:49.322Z,20.40
2018-07-05T22:46:35.783Z,20.30
2018-07-05T22:49:22.360Z,20.30
2018-07-05T22:52:09.262Z,20.20
2018-07-05T22:54:55.736Z,20.20
2018-07-05T22:57:42.328Z,20.20
2018-07-05T23:00:28.895Z,20.20
2018-07-05T23:03:18.920Z,20.20
2018-07-05T23:06:05.681Z,20.20
2018-07-05T23:08:52.434Z,20.20
2018-07-05T23:11:39.005Z,20.20
2018-07-05T23:14:25.952Z,20.20
2018-07-05T23:17:12.585Z,20.20
2018-07-05T23:19:59.682Z,20.20
2018-07-05T23:22:49.200Z,20.20
2018-07-05T23:25:35.935Z,20.20
2018-07-05T23:28:22.410Z,20.20
2018-07-05T23:31:11.671Z,20.20
2018-07-05T23:33:58.298Z,20.20
2018-07-05T23:36:44.963Z,20.10
2018-07-05T23:39:31.551Z,20.00
2018-07-05T23:42:18.168Z,20.10
2018-07-05T23:45:04.762Z,20.10
2018-07-05T23:47:51.363Z,20.10
2018-07-05T23:50:38.031Z,20.00
2018-07-05T23:53:25.207Z,20.00
2018-07-05T23:56:12.003Z,19.90
2018-07-05T23:58:59.505Z,19.80
